Time;durP1;ratioP1;P1;durP2;ratioP2;P2;SDS_P1;SDS_P2;PMS_P1;PMS_P2;Temp;Humidity;BMP_temperature;BMP_pressure;BME280_temperature;BME280_humidity;BME280_pressure;Samples;Min_cycle;Max_cycle;Signal;HPM_P1;HPM_P2
2022/09/23 00:00:49;;;;;;;1999.90;999.90;;;11.00;99.90;;;;;;5052290;28;20462;-75
2022/09/23 00:03:16;;;;;;;1999.90;999.90;;;11.10;99.90;;;;;;5050686;28;20462;-75
2022/09/23 00:05:42;;;;;;;1999.90;999.90;;;11.20;99.90;;;;;;5048498;28;20992;-75
2022/09/23 00:08:11;;;;;;;1999.90;999.90;;;11.10;99.90;;;;;;5048721;28;20459;-77
2022/09/23 00:10:39;;;;;;;1999.90;999.90;;;10.90;99.90;;;;;;5044225;28;20471;-76
2022/09/23 00:13:07;;;;;;;1999.90;999.90;;;10.80;99.90;;;;;;5055244;28;20520;-77
2022/09/23 00:15:38;;;;;;;1999.90;999.90;;;10.70;99.90;;;;;;5055853;28;21061;-78
2022/09/23 00:18:07;;;;;;;1999.90;999.90;;;10.70;99.90;;;;;;5057605;28;20933;-76
2022/09/23 00:20:34;;;;;;;1999.90;999.90;;;10.70;99.90;;;;;;5056010;28;20515;-76
2022/09/23 00:23:00;;;;;;;1999.90;999.90;;;10.70;99.90;;;;;;5049172;28;20519;-73
2022/09/23 00:25:28;;;;;;;1999.90;999.90;;;10.70;99.90;;;;;;5053170;28;20513;-77
2022/09/23 00:27:55;;;;;;;1999.90;999.90;;;10.70;99.90;;;;;;5051648;28;20462;-77
2022/09/23 00:30:22;;;;;;;1999.90;999.90;;;10.70;99.90;;;;;;5056515;28;20517;-78
2022/09/23 00:32:51;;;;;;;1999.90;999.90;;;10.80;99.90;;;;;;5055795;28;20529;-75
2022/09/23 00:35:20;;;;;;;1999.90;999.90;;;10.90;99.90;;;;;;5047700;28;20495;-75
2022/09/23 00:37:46;;;;;;;1999.90;999.90;;;10.90;99.90;;;;;;5049563;28;20470;-75
2022/09/23 00:40:13;;;;;;;1999.90;999.90;;;10.90;99.90;;;;;;5048637;28;20466;-75
2022/09/23 00:42:46;;;;;;;1999.90;999.90;;;10.90;99.90;;;;;;5044100;28;20555;-75
2022/09/23 00:45:13;;;;;;;1999.90;999.90;;;10.90;99.90;;;;;;5046483;28;20528;-78
2022/09/23 00:47:46;;;;;;;1999.90;999.90;;;10.80;99.90;;;;;;5043799;28;20516;-77
2022/09/23 00:50:20;;;;;;;1999.90;999.90;;;10.70;99.90;;;;;;5050013;28;21027;-77
2022/09/23 00:52:50;;;;;;;1999.90;999.90;;;10.50;99.90;;;;;;5045872;28;20466;-77
2022/09/23 00:55:24;;;;;;;1999.90;999.90;;;10.50;99.90;;;;;;5047286;28;20478;-77
2022/09/23 00:57:54;;;;;;;1999.90;999.90;;;10.40;99.90;;;;;;5049700;28;20486;-77
2022/09/23 01:00:22;;;;;;;1999.90;999.90;;;10.30;99.90;;;;;;5048237;28;20454;-77
2022/09/23 01:02:49;;;;;;;1999.90;999.90;;;10.30;99.90;;;;;;5056187;28;20995;-77
2022/09/23 01:05:16;;;;;;;1999.90;999.90;;;10.30;99.90;;;;;;5047685;28;20486;-77
2022/09/23 01:07:43;;;;;;;1999.90;999.90;;;10.40;99.90;;;;;;5053143;28;20464;-75
2022/09/23 01:10:14;;;;;;;1999.90;999.90;;;10.50;99.90;;;;;;5059530;28;20477;-77
2022/09/23 01:12:57;;;;;;;1999.90;999.90;;;10.60;99.90;;;;;;5042922;28;20999;-76
2022/09/23 01:15:32;;;;;;;1999.90;999.90;;;10.60;99.90;;;;;;5048283;28;20478;-76
2022/09/23 01:18:07;;;;;;;1999.90;999.90;;;10.60;99.90;;;;;;5050507;28;20503;-74
2022/09/23 01:21:31;;;;;;;1999.90;999.90;;;10.50;99.90;;;;;;5060323;28;20458;-76
2022/09/23 01:24:32;;;;;;;1999.90;999.90;;;10.40;99.90;;;;;;4988130;28;20480;-75
2022/09/23 01:27:09;;;;;;;1999.90;999.90;;;10.30;99.90;;;;;;5004053;28;20467;-76
2022/09/23 01:30:07;;;;;;;1999.90;999.90;;;10.20;99.90;;;;;;5049899;28;20536;-78
2022/09/23 01:32:48;;;;;;;1999.90;999.90;;;10.10;99.90;;;;;;5055516;28;20509;-77
2022/09/23 01:35:27;;;;;;;1999.90;999.90;;;10.10;99.90;;;;;;5050773;28;20906;-77
2022/09/23 01:38:03;;;;;;;1999.90;999.90;;;10.00;99.90;;;;;;5060038;28;21196;-75
2022/09/23 01:40:52;;;;;;;1999.90;999.90;;;9.90;99.90;;;;;;5058177;28;20822;-75
2022/09/23 01:43:27;;;;;;;1999.90;999.90;;;9.80;99.90;;;;;;5051653;28;20462;-74
2022/09/23 01:45:58;;;;;;;1999.90;999.90;;;9.70;99.90;;;;;;5048077;28;20504;-74
2022/09/23 01:48:32;;;;;;;1999.90;999.90;;;9.60;99.90;;;;;;5052265;28;20822;-75
2022/09/23 01:51:08;;;;;;;1999.90;999.90;;;9.60;99.90;;;;;;5054959;28;20851;-73
2022/09/23 01:53:40;;;;;;;1999.90;999.90;;;9.50;99.90;;;;;;5060110;28;20818;-75
2022/09/23 01:56:13;;;;;;;1999.90;999.90;;;9.60;99.90;;;;;;5053722;28;20716;-76
2022/09/23 01:58:44;;;;;;;1999.90;999.90;;;9.60;99.90;;;;;;5058615;28;20466;-74
2022/09/23 02:01:23;;;;;;;1999.90;999.90;;;9.90;99.90;;;;;;5054379;28;20450;-77
2022/09/23 02:03:58;;;;;;;1999.90;999.90;;;10.00;99.90;;;;;;5051181;28;20477;-74
2022/09/23 02:06:29;;;;;;;1999.90;999.90;;;10.20;99.90;;;;;;5056455;28;20446;-74
2022/09/23 02:08:59;;;;;;;1999.90;999.90;;;10.30;99.90;;;;;;5056927;28;20458;-75
2022/09/23 02:11:26;;;;;;;1999.90;999.90;;;10.60;99.90;;;;;;5052671;28;20486;-76
2022/09/23 02:13:56;;;;;;;1999.90;999.90;;;10.60;99.90;;;;;;5052136;28;20916;-75
2022/09/23 02:16:28;;;;;;;1999.90;999.90;;;10.60;99.90;;;;;;5056052;28;20501;-75
2022/09/23 02:19:01;;;;;;;1999.90;999.90;;;10.50;99.90;;;;;;5052610;28;20469;-75
2022/09/23 02:21:34;;;;;;;1999.90;999.90;;;10.40;99.90;;;;;;5052181;28;20462;-75
2022/09/23 02:26:55;;;;;;;1999.90;999.90;;;10.20;99.90;;;;;;5048903;28;20457;-75
2022/09/23 02:29:26;;;;;;;1999.90;999.90;;;10.20;99.90;;;;;;5053746;28;20450;-75
2022/09/23 02:32:00;;;;;;;1999.90;999.90;;;10.10;99.90;;;;;;5051419;28;20521;-75
2022/09/23 02:34:40;;;;;;;1999.90;999.90;;;10.00;99.90;;;;;;5050821;28;20860;-74
2022/09/23 02:37:16;;;;;;;1999.90;999.90;;;10.10;99.90;;;;;;5056240;28;20472;-73
2022/09/23 02:39:55;;;;;;;1999.90;999.90;;;10.10;99.90;;;;;;5058418;28;20511;-75
2022/09/23 02:42:25;;;;;;;1999.90;999.90;;;10.00;99.90;;;;;;5049006;28;20545;-76
2022/09/23 02:44:51;;;;;;;1999.90;999.90;;;10.00;99.90;;;;;;5054857;28;20558;-75
2022/09/23 02:47:23;;;;;;;1999.90;999.90;;;9.90;99.90;;;;;;5050518;28;20511;-76
2022/09/23 02:49:52;;;;;;;1999.90;999.90;;;9.90;99.90;;;;;;5052188;28;20462;-75
2022/09/23 02:52:19;;;;;;;1999.90;999.90;;;9.90;99.90;;;;;;5048828;28;20509;-76
2022/09/23 02:54:45;;;;;;;1999.90;999.90;;;9.90;99.90;;;;;;5055888;28;20915;-75
2022/09/23 02:57:13;;;;;;;1999.90;999.90;;;9.90;99.90;;;;;;5061326;28;20523;-74
2022/09/23 02:59:55;;;;;;;1999.90;999.90;;;10.00;99.90;;;;;;5050628;28;20462;-75
2022/09/23 03:02:40;;;;;;;1999.90;999.90;;;10.00;99.90;;;;;;5050387;28;20512;-75
2022/09/23 03:05:17;;;;;;;1999.90;999.90;;;10.00;99.90;;;;;;5051478;28;20486;-72
2022/09/23 03:07:51;;;;;;;1999.90;999.90;;;10.40;99.90;;;;;;5057631;28;20845;-72
2022/09/23 03:10:24;;;;;;;1999.90;999.90;;;9.80;99.90;;;;;;5054388;28;20459;-76
2022/09/23 03:13:03;;;;;;;1999.90;999.90;;;9.70;99.90;;;;;;5047048;28;20466;-73
2022/09/23 03:15:36;;;;;;;1999.90;999.90;;;9.40;99.90;;;;;;5049678;28;21096;-74
2022/09/23 03:18:13;;;;;;;1999.90;999.90;;;9.40;99.90;;;;;;5051222;28;20886;-73
2022/09/23 03:20:45;;;;;;;1999.90;999.90;;;9.30;99.90;;;;;;5052333;28;20455;-75
2022/09/23 03:23:16;;;;;;;1999.90;999.90;;;9.20;99.90;;;;;;5052594;28;20486;-74
2022/09/23 03:25:46;;;;;;;1999.90;999.90;;;9.20;99.90;;;;;;5052172;28;20485;-74
2022/09/23 03:28:16;;;;;;;1999.90;999.90;;;9.10;99.90;;;;;;5050446;28;20516;-75
2022/09/23 03:30:43;;;;;;;1999.90;999.90;;;9.10;99.90;;;;;;5049911;28;21053;-72
2022/09/23 03:33:15;;;;;;;1999.90;999.90;;;9.10;99.90;;;;;;5050897;28;20568;-74
2022/09/23 03:38:45;;;;;;;1999.90;999.90;;;9.10;99.90;;;;;;5038843;28;20445;-75
2022/09/23 03:41:15;;;;;;;1999.90;999.90;;;9.10;99.90;;;;;;5053477;28;20570;-73
2022/09/23 03:43:43;;;;;;;1999.90;999.90;;;9.00;99.90;;;;;;5050600;28;21137;-75
2022/09/23 03:46:10;;;;;;;1999.90;999.90;;;9.00;99.90;;;;;;5052872;28;20509;-71
2022/09/23 03:48:37;;;;;;;1999.90;999.90;;;8.90;99.90;;;;;;5049986;28;20459;-75
2022/09/23 03:51:18;;;;;;;1999.90;999.90;;;8.90;99.90;;;;;;5052503;28;20540;-75
2022/09/23 03:53:45;;;;;;;1999.90;999.90;;;8.90;99.90;;;;;;5058457;28;20520;-75
2022/09/23 03:56:12;;;;;;;1999.90;999.90;;;8.90;99.90;;;;;;5049420;28;20528;-74
2022/09/23 03:58:38;;;;;;;1999.90;999.90;;;8.60;99.90;;;;;;5047983;28;20471;-75
2022/09/23 04:01:06;;;;;;;1999.90;999.90;;;8.50;99.90;;;;;;5048317;28;20737;-73
2022/09/23 04:03:32;;;;;;;1999.90;999.90;;;8.50;99.90;;;;;;5049713;28;20471;-73
2022/09/23 04:05:59;;;;;;;1999.90;999.90;;;8.50;99.90;;;;;;5054549;28;20492;-72
2022/09/23 04:08:27;;;;;;;1999.90;999.90;;;8.50;99.90;;;;;;5047932;28;20459;-76
2022/09/23 04:11:00;;;;;;;1999.90;999.90;;;8.30;99.90;;;;;;5054017;28;20477;-75
2022/09/23 04:13:27;;;;;;;1999.90;999.90;;;8.30;99.90;;;;;;5048513;28;20454;-75
2022/09/23 04:15:53;;;;;;;1999.90;999.90;;;8.20;99.90;;;;;;5056238;28;20891;-73
2022/09/23 04:18:21;;;;;;;1999.90;999.90;;;8.20;99.90;;;;;;5053193;28;20466;-75
2022/09/23 04:20:48;;;;;;;1999.90;999.90;;;8.10;99.90;;;;;;5054416;28;20469;-75
2022/09/23 04:23:14;;;;;;;1999.90;999.90;;;8.00;99.90;;;;;;5052454;28;20519;-73
2022/09/23 04:25:45;;;;;;;1999.90;999.90;;;8.00;99.90;;;;;;5049031;28;20483;-75
2022/09/23 04:28:12;;;;;;;1999.90;999.90;;;7.90;99.90;;;;;;5049390;28;21035;-75
2022/09/23 04:30:42;;;;;;;1999.90;999.90;;;7.90;99.90;;;;;;5049038;28;21019;-74
2022/09/23 04:33:09;;;;;;;1999.90;999.90;;;7.90;99.90;;;;;;5049703;28;20469;-76
2022/09/23 04:35:37;;;;;;;1999.90;999.90;;;7.80;99.90;;;;;;5049005;28;20475;-76
2022/09/23 04:38:04;;;;;;;1999.90;999.90;;;7.70;99.90;;;;;;5047087;28;20469;-76
2022/09/23 04:40:31;;;;;;;1999.90;999.90;;;7.80;99.90;;;;;;5045864;28;20472;-73
2022/09/23 04:42:59;;;;;;;1999.90;999.90;;;7.80;99.90;;;;;;5052636;28;20507;-74
2022/09/23 04:45:26;;;;;;;1999.90;999.90;;;7.80;99.90;;;;;;5048556;28;20581;-74
2022/09/23 04:47:53;;;;;;;1999.90;999.90;;;7.80;99.90;;;;;;5046125;28;20488;-76
2022/09/23 04:50:20;;;;;;;1999.90;999.90;;;7.70;99.90;;;;;;5044574;28;20459;-75
2022/09/23 04:52:46;;;;;;;1999.90;999.90;;;7.70;99.90;;;;;;5050182;28;20516;-75
2022/09/23 04:55:13;;;;;;;1999.90;999.90;;;7.70;99.90;;;;;;5051165;28;20482;-73
2022/09/23 04:57:40;;;;;;;1999.90;999.90;;;7.70;99.90;;;;;;5056658;28;20455;-75
2022/09/23 05:00:11;;;;;;;1999.90;999.90;;;7.60;99.90;;;;;;5047568;28;20461;-75
2022/09/23 05:02:43;;;;;;;1999.90;999.90;;;7.70;99.90;;;;;;5054768;28;20938;-75
2022/09/23 05:05:09;;;;;;;1999.90;999.90;;;7.60;99.90;;;;;;5051848;28;20518;-75
2022/09/23 05:07:36;;;;;;;1999.90;999.90;;;7.60;99.90;;;;;;5051313;28;20529;-76
2022/09/23 05:10:03;;;;;;;1999.90;999.90;;;7.50;99.90;;;;;;5046134;28;20520;-75
2022/09/23 05:12:30;;;;;;;1999.90;999.90;;;7.50;99.90;;;;;;5044170;28;20479;-75
2022/09/23 05:14:56;;;;;;;1999.90;999.90;;;7.50;99.90;;;;;;5049813;28;20516;-75
2022/09/23 05:17:24;;;;;;;1999.90;999.90;;;7.50;99.90;;;;;;5045258;28;20521;-74
2022/09/23 05:19:51;;;;;;;1999.90;999.90;;;7.50;99.90;;;;;;5055065;28;20462;-76
2022/09/23 05:22:18;;;;;;;1999.90;999.90;;;7.60;99.90;;;;;;5045541;28;20497;-72
2022/09/23 05:24:44;;;;;;;1999.90;999.90;;;7.60;99.90;;;;;;5053071;28;20479;-75
2022/09/23 05:27:11;;;;;;;1999.90;999.90;;;7.60;99.90;;;;;;5047670;28;20458;-76
2022/09/23 05:29:38;;;;;;;1999.90;999.90;;;7.70;99.90;;;;;;5045529;28;20469;-76
2022/09/23 05:32:05;;;;;;;1999.90;999.90;;;7.90;99.90;;;;;;5052647;28;20481;-76
2022/09/23 05:34:33;;;;;;;1999.90;999.90;;;7.90;99.90;;;;;;5051790;28;20508;-76
2022/09/23 05:37:00;;;;;;;1999.90;999.90;;;8.00;99.90;;;;;;5045704;28;20871;-78
2022/09/23 05:39:26;;;;;;;1999.90;999.90;;;8.00;99.90;;;;;;5048639;28;20489;-75
2022/09/23 05:41:54;;;;;;;1999.90;999.90;;;8.00;99.90;;;;;;5047129;28;20465;-75
2022/09/23 05:44:21;;;;;;;1999.90;999.90;;;8.10;99.90;;;;;;5049406;28;20489;-73
2022/09/23 05:46:48;;;;;;;1999.90;999.90;;;8.20;99.90;;;;;;5048537;28;20462;-75
2022/09/23 05:49:14;;;;;;;1999.90;999.90;;;8.20;99.90;;;;;;5046139;28;20470;-75
2022/09/23 05:51:42;;;;;;;1999.90;999.90;;;8.30;99.90;;;;;;5048908;28;21017;-71
2022/09/23 05:54:09;;;;;;;1999.90;999.90;;;8.50;99.90;;;;;;5047780;28;20481;-72
2022/09/23 05:56:36;;;;;;;1999.90;999.90;;;8.60;99.90;;;;;;5047147;28;20907;-72
2022/09/23 05:59:04;;;;;;;1999.90;999.90;;;8.70;99.90;;;;;;5045764;28;20535;-71
2022/09/23 06:01:34;;;;;;;1999.90;999.90;;;8.70;99.90;;;;;;5043956;28;20967;-72
2022/09/23 06:04:02;;;;;;;1999.90;999.90;;;8.80;99.90;;;;;;5044144;28;20506;-72
2022/09/23 06:06:30;;;;;;;1999.90;999.90;;;8.90;99.90;;;;;;5053038;28;20826;-73
2022/09/23 06:08:59;;;;;;;1999.90;999.90;;;8.90;99.90;;;;;;5053490;28;20459;-73
2022/09/23 06:11:32;;;;;;;1999.90;999.90;;;9.00;99.90;;;;;;5049328;28;20458;-72
2022/09/23 06:14:01;;;;;;;1999.90;999.90;;;9.20;99.90;;;;;;5044989;28;20478;-72
2022/09/23 06:16:28;;;;;;;1999.90;999.90;;;9.30;99.90;;;;;;5049372;28;20550;-71
2022/09/23 06:18:55;;;;;;;1999.90;999.90;;;9.40;99.90;;;;;;5053386;28;20474;-72
2022/09/23 06:21:22;;;;;;;1999.90;999.90;;;9.40;99.90;;;;;;5047868;28;20458;-73
2022/09/23 06:23:48;;;;;;;1999.90;999.90;;;9.50;99.90;;;;;;5048723;28;20475;-73
2022/09/23 06:26:17;;;;;;;1999.90;999.90;;;9.60;99.90;;;;;;5050151;28;20888;-73
2022/09/23 06:28:45;;;;;;;1999.90;999.90;;;9.80;99.90;;;;;;5050205;28;20466;-73
2022/09/23 06:31:14;;;;;;;1999.90;999.90;;;10.10;99.90;;;;;;5048386;28;20988;-74
2022/09/23 06:33:41;;;;;;;1999.90;999.90;;;10.30;99.90;;;;;;5046731;28;20489;-72
2022/09/23 06:36:09;;;;;;;1999.90;999.90;;;10.20;99.90;;;;;;5054781;28;20540;-74
2022/09/23 06:38:38;;;;;;;1999.90;999.90;;;10.20;99.90;;;;;;5046443;28;21037;-74
2022/09/23 06:41:05;;;;;;;1999.90;999.90;;;10.10;99.90;;;;;;5046920;28;20909;-74
2022/09/23 06:43:34;;;;;;;1999.90;999.90;;;10.30;99.90;;;;;;5050998;28;20463;-74
2022/09/23 06:46:02;;;;;;;1999.90;999.90;;;10.30;99.90;;;;;;5054924;28;20493;-74
2022/09/23 06:48:30;;;;;;;1999.90;999.90;;;10.50;99.90;;;;;;5049014;28;20454;-73
2022/09/23 06:51:01;;;;;;;1999.90;999.90;;;10.60;99.90;;;;;;5052451;28;20458;-74
2022/09/23 06:53:42;;;;;;;1999.90;999.90;;;10.90;99.90;;;;;;5050499;28;20489;-74
2022/09/23 06:56:10;;;;;;;1999.90;999.90;;;11.00;99.90;;;;;;5049440;28;20957;-75
2022/09/23 06:58:39;;;;;;;1999.90;999.90;;;11.20;99.90;;;;;;5043566;28;20455;-74
2022/09/23 07:01:07;;;;;;;1999.90;999.90;;;11.50;99.90;;;;;;5050728;28;20470;-75
2022/09/23 07:03:35;;;;;;;1999.90;999.90;;;11.70;99.90;;;;;;5043363;28;20887;-75
2022/09/23 07:06:02;;;;;;;1999.90;999.90;;;12.00;99.90;;;;;;5044833;28;20517;-75
2022/09/23 07:08:32;;;;;;;1999.90;999.90;;;12.20;99.90;;;;;;5047199;28;20466;-75
2022/09/23 07:11:00;;;;;;;1999.90;999.90;;;12.80;99.90;;;;;;5045681;28;20498;-75
2022/09/23 07:13:28;;;;;;;1999.90;999.90;;;13.10;99.90;;;;;;5033908;28;20536;-75
2022/09/23 07:15:59;;;;;;;1999.90;999.90;;;13.30;99.90;;;;;;5036525;28;20510;-74
2022/09/23 07:18:27;;;;;;;1999.90;999.90;;;13.50;99.90;;;;;;5050222;28;20478;-75
2022/09/23 07:20:57;;;;;;;1999.90;999.90;;;13.40;99.90;;;;;;5033257;28;20455;-75
2022/09/23 07:23:24;;;;;;;1999.90;999.90;;;13.80;99.90;;;;;;5033491;28;20903;-75
2022/09/23 07:25:51;;;;;;;1999.90;999.90;;;13.90;99.90;;;;;;5034899;28;20540;-72
2022/09/23 07:28:18;;;;;;;1999.90;999.90;;;14.20;99.90;;;;;;5050833;28;20504;-75
2022/09/23 07:30:46;;;;;;;1999.90;999.90;;;14.40;99.90;;;;;;5033286;28;20473;-76
2022/09/23 07:33:14;;;;;;;1999.90;999.90;;;14.40;99.90;;;;;;5032227;28;20483;-74
2022/09/23 07:35:41;;;;;;;1999.90;999.90;;;14.20;99.90;;;;;;5033207;28;20467;-75
2022/09/23 07:38:09;;;;;;;1999.90;999.90;;;14.40;99.90;;;;;;5051944;28;20500;-75
2022/09/23 07:40:35;;;;;;;1999.90;999.90;;;14.70;99.90;;;;;;5036549;28;20875;-75
2022/09/23 07:43:04;;;;;;;1999.90;999.90;;;14.60;99.90;;;;;;5046408;28;20889;-76
2022/09/23 07:45:32;;;;;;;1999.90;999.90;;;14.50;99.90;;;;;;5048959;28;20582;-73
2022/09/23 07:47:59;;;;;;;1999.90;999.90;;;14.50;99.90;;;;;;5053989;28;20966;-76
2022/09/23 07:50:32;;;;;;;1999.90;999.90;;;14.60;99.90;;;;;;5052728;28;21031;-70
2022/09/23 07:53:00;;;;;;;1999.90;999.90;;;14.60;99.90;;;;;;5054990;28;21167;-72
2022/09/23 07:55:27;;;;;;;1999.90;999.90;;;14.70;99.90;;;;;;5059007;28;20527;-74
2022/09/23 07:57:53;;;;;;;1999.90;999.90;;;15.00;99.90;;;;;;5059557;28;20506;-73
2022/09/23 08:00:20;;;;;;;1999.90;999.90;;;15.20;99.90;;;;;;5051130;28;20470;-71
2022/09/23 08:02:47;;;;;;;1999.90;999.90;;;15.40;99.90;;;;;;5047430;28;20459;-72
2022/09/23 08:05:13;;;;;;;1999.90;999.90;;;15.70;99.90;;;;;;5053211;28;20486;-72
2022/09/23 08:07:41;;;;;;;1999.90;999.90;;;16.00;99.90;;;;;;5051332;28;20508;-71
2022/09/23 08:10:08;;;;;;;1999.90;999.90;;;16.00;99.90;;;;;;5044081;28;20905;-73
2022/09/23 08:12:35;;;;;;;1999.90;999.90;;;16.20;99.90;;;;;;5048430;28;20991;-73
2022/09/23 08:15:03;;;;;;;1999.90;999.90;;;16.20;99.90;;;;;;5052156;28;20486;-70
2022/09/23 08:17:29;;;;;;;1999.90;999.90;;;16.20;99.90;;;;;;5050153;28;20465;-72
2022/09/23 08:19:56;;;;;;;1999.90;999.90;;;16.20;99.90;;;;;;5052160;28;20462;-72
2022/09/23 08:22:23;;;;;;;1999.90;999.90;;;16.20;99.90;;;;;;5048583;28;20458;-72
2022/09/23 08:24:51;;;;;;;1999.90;999.90;;;16.20;99.90;;;;;;5047255;28;20977;-71
2022/09/23 08:27:17;;;;;;;1999.90;999.90;;;16.20;99.90;;;;;;5052691;28;21019;-74
2022/09/23 08:29:44;;;;;;;1999.90;999.90;;;16.30;99.90;;;;;;5052759;28;20507;-73
2022/09/23 08:32:11;;;;;;;1999.90;999.90;;;16.30;99.90;;;;;;5051637;28;20969;-72
2022/09/23 08:34:38;;;;;;;1999.90;999.90;;;16.40;99.90;;;;;;5054516;28;21176;-72
2022/09/23 08:37:08;;;;;;;1999.90;999.90;;;16.30;99.90;;;;;;5048773;28;20466;-73
2022/09/23 08:39:35;;;;;;;1999.90;999.90;;;16.30;99.90;;;;;;5051807;28;20466;-73
2022/09/23 08:42:16;;;;;;;1999.90;999.90;;;16.20;99.90;;;;;;5049146;28;20466;-73
2022/09/23 08:44:47;;;;;;;1999.90;999.90;;;16.10;99.90;;;;;;5056414;28;20493;-73
2022/09/23 08:47:21;;;;;;;1999.90;999.90;;;16.20;99.90;;;;;;5045852;28;20820;-73
2022/09/23 08:49:53;;;;;;;1999.90;999.90;;;16.40;99.90;;;;;;5050070;28;20466;-73
2022/09/23 08:52:28;;;;;;;1999.90;999.90;;;16.30;99.90;;;;;;5058806;28;20470;-70
2022/09/23 08:54:55;;;;;;;1999.90;999.90;;;16.40;99.90;;;;;;5058788;28;20841;-73
2022/09/23 08:57:30;;;;;;;1999.90;999.90;;;16.60;99.90;;;;;;5058698;28;20464;-71
2022/09/23 08:59:58;;;;;;;1999.90;999.90;;;16.70;99.90;;;;;;5049065;28;20911;-73
2022/09/23 09:02:25;;;;;;;1999.90;999.90;;;17.00;99.90;;;;;;5063373;28;20828;-73
2022/09/23 09:04:55;;;;;;;1999.90;999.90;;;17.20;99.90;;;;;;5061895;28;20849;-72
2022/09/23 09:07:28;;;;;;;1999.90;999.90;;;17.50;99.90;;;;;;5059399;28;20870;-72
2022/09/23 09:10:02;;;;;;;1999.90;999.90;;;17.80;99.90;;;;;;5049067;28;20453;-72
2022/09/23 09:12:37;;;;;;;1999.90;999.90;;;17.90;99.90;;;;;;5053689;28;20509;-72
2022/09/23 09:15:07;;;;;;;1999.90;999.90;;;18.00;99.90;;;;;;5061465;28;20492;-72
2022/09/23 09:17:37;;;;;;;1999.90;999.90;;;17.70;99.90;;;;;;5059818;28;20470;-72
2022/09/23 09:20:18;;;;;;;1999.90;999.90;;;17.90;99.90;;;;;;5048710;28;20549;-72
2022/09/23 09:22:52;;;;;;;1999.90;999.90;;;18.00;99.80;;;;;;5048219;28;20458;-72
2022/09/23 09:25:28;;;;;;;1999.90;999.90;;;18.20;97.60;;;;;;5050007;28;20482;-70
2022/09/23 09:27:57;;;;;;;1999.90;999.90;;;18.00;97.30;;;;;;5047694;28;20458;-72
2022/09/23 09:30:24;;;;;;;1999.90;999.90;;;18.30;97.40;;;;;;5051154;28;20454;-72
2022/09/23 09:32:57;;;;;;;1999.90;999.90;;;18.50;96.80;;;;;;5050928;28;20486;-72
2022/09/23 09:35:32;;;;;;;1999.90;999.90;;;18.80;97.10;;;;;;5041593;28;20486;-72
2022/09/23 09:37:59;;;;;;;1999.90;999.90;;;18.80;94.80;;;;;;5051515;28;20461;-74
2022/09/23 09:40:26;;;;;;;1999.90;999.90;;;19.00;94.50;;;;;;5043222;28;20463;-72
2022/09/23 09:42:52;;;;;;;1999.90;999.90;;;19.30;94.10;;;;;;5049324;28;20485;-71
2022/09/23 09:45:32;;;;;;;1999.90;999.90;;;19.50;94.00;;;;;;5047019;28;20540;-71
2022/09/23 09:48:06;;;;;;;1999.90;999.90;;;19.50;94.30;;;;;;5052677;28;20462;-72
2022/09/23 09:50:46;;;;;;;1999.90;999.90;;;19.30;93.90;;;;;;5048577;28;20458;-71
2022/09/23 09:53:22;;;;;;;1999.90;999.90;;;19.30;93.50;;;;;;5043109;28;20489;-72
2022/09/23 09:56:01;;;;;;;1999.90;999.90;;;18.90;93.30;;;;;;5045687;28;20488;-71
2022/09/23 09:58:40;;;;;;;1999.90;999.90;;;18.50;93.60;;;;;;5051761;28;21039;-73
2022/09/23 10:01:08;;;;;;;1999.90;999.90;;;18.50;94.10;;;;;;5050892;28;20489;-72
2022/09/23 10:03:41;;;;;;;1999.90;999.90;;;18.70;93.80;;;;;;5053439;28;20454;-72
2022/09/23 10:06:21;;;;;;;1999.90;999.90;;;18.40;94.00;;;;;;5053848;28;20462;-72
2022/09/23 10:09:08;;;;;;;1999.90;999.90;;;18.50;94.20;;;;;;5049559;28;20887;-70
2022/09/23 10:11:35;;;;;;;1999.90;999.90;;;18.70;94.50;;;;;;5054958;28;20462;-74
2022/09/23 10:14:06;;;;;;;1999.90;999.90;;;19.10;94.50;;;;;;5051372;28;20485;-73
2022/09/23 10:16:34;;;;;;;1999.90;999.90;;;19.20;96.10;;;;;;5049500;28;20515;-72
2022/09/23 10:19:03;;;;;;;1999.90;999.90;;;19.30;94.20;;;;;;5053488;28;20462;-72
2022/09/23 10:21:34;;;;;;;1999.90;999.90;;;19.10;93.90;;;;;;5050879;28;20447;-71
2022/09/23 10:24:04;;;;;;;1999.90;999.90;;;19.20;93.20;;;;;;5035259;28;20525;-72
2022/09/23 10:26:33;;;;;;;1999.90;999.90;;;19.30;93.00;;;;;;5044794;28;20454;-72
2022/09/23 10:29:03;;;;;;;1999.90;999.90;;;19.60;92.80;;;;;;5046385;28;20545;-71
2022/09/23 10:31:31;;;;;;;1999.90;999.90;;;19.30;93.70;;;;;;5035193;28;20510;-72
2022/09/23 10:34:01;;;;;;;1999.90;999.90;;;19.10;93.70;;;;;;5035204;28;21007;-72
2022/09/23 10:36:29;;;;;;;1999.90;999.90;;;18.90;93.70;;;;;;5043466;28;20466;-72
2022/09/23 10:46:36;;;;;;;1999.90;999.90;;;18.40;94.50;;;;;;5053923;28;20946;-72
2022/09/23 10:47:47;;;;;;;1999.90;999.90;;;18.10;97.10;;;;;;5080890;22;21003;-70
2022/09/23 10:50:28;;;;;;;1999.90;999.90;;;18.70;94.80;;;;;;5074093;28;20445;-71
2022/09/23 10:53:04;;;;;;;1999.90;999.90;;;18.90;96.40;;;;;;5074193;28;21032;-70
2022/09/23 10:55:43;;;;;;;1999.90;999.90;;;19.30;94.50;;;;;;5072589;28;20958;-70
2022/09/23 10:58:23;;;;;;;1999.90;999.90;;;19.50;93.90;;;;;;5073800;28;20465;-67
2022/09/23 11:01:03;;;;;;;1999.90;999.90;;;19.50;92.10;;;;;;5073672;28;20433;-70
2022/09/23 11:04:09;;;;;;;1999.90;999.90;;;19.40;92.60;;;;;;5073541;28;20487;-70
2022/09/23 11:06:52;;;;;;;1999.90;999.90;;;18.70;92.60;;;;;;5008964;28;20560;-70
2022/09/23 11:09:29;;;;;;;1999.90;999.90;;;18.70;93.00;;;;;;5072109;28;20460;-70
2022/09/23 11:12:09;;;;;;;1999.90;999.90;;;18.80;93.60;;;;;;5067755;28;20518;-70
2022/09/23 11:14:51;;;;;;;1999.90;999.90;;;18.90;93.60;;;;;;5071095;28;20519;-70
2022/09/23 11:17:32;;;;;;;1999.90;999.90;;;19.00;93.50;;;;;;5074170;28;20495;-69
2022/09/23 11:20:14;;;;;;;1999.90;999.90;;;19.20;92.70;;;;;;5073013;28;20466;-70
2022/09/23 11:22:58;;;;;;;1999.90;999.90;;;19.20;92.50;;;;;;5075173;28;20465;-69
2022/09/23 11:25:37;;;;;;;1999.90;999.90;;;19.30;92.90;;;;;;5070071;28;20498;-70
2022/09/23 11:28:25;;;;;;;1999.90;999.90;;;19.80;92.50;;;;;;5071099;28;20472;-70
2022/09/23 11:31:03;;;;;;;1999.90;999.90;;;20.20;90.50;;;;;;5065834;28;20474;-70
2022/09/23 11:33:46;;;;;;;1999.90;999.90;;;20.00;88.90;;;;;;5073272;28;20483;-69
2022/09/23 11:36:22;;;;;;;1999.90;999.90;;;20.20;90.10;;;;;;5071180;28;20965;-73
2022/09/23 11:38:53;;;;;;;1999.90;999.90;;;20.20;90.80;;;;;;5074158;28;20465;-72
2022/09/23 11:41:25;;;;;;;1999.90;999.90;;;20.30;90.10;;;;;;5068594;28;20461;-72
2022/09/23 11:43:56;;;;;;;1999.90;999.90;;;20.40;88.90;;;;;;5075735;28;20468;-73
2022/09/23 11:46:34;;;;;;;1999.90;999.90;;;20.20;90.10;;;;;;5072246;28;20476;-73
2022/09/23 11:49:07;;;;;;;1999.90;999.90;;;20.20;89.90;;;;;;5067048;28;20460;-72
2022/09/23 11:51:40;;;;;;;1999.90;999.90;;;20.10;88.00;;;;;;5070495;28;20503;-70
2022/09/23 11:54:16;;;;;;;1999.90;999.90;;;20.10;89.60;;;;;;5072032;28;20846;-73
2022/09/23 11:56:46;;;;;;;1999.90;999.90;;;20.20;88.40;;;;;;5073156;28;20489;-73
2022/09/23 11:59:19;;;;;;;1999.90;999.90;;;20.50;87.90;;;;;;5070917;28;20528;-72
2022/09/23 12:01:50;;;;;;;1999.90;999.90;;;20.20;85.70;;;;;;5069361;28;20465;-70
2022/09/23 12:04:24;;;;;;;1999.90;999.90;;;20.30;88.10;;;;;;5069321;28;20457;-70
2022/09/23 12:06:56;;;;;;;1999.90;999.90;;;19.90;86.70;;;;;;5074092;28;20895;-70
2022/09/23 12:09:32;;;;;;;1999.90;999.90;;;19.70;87.40;;;;;;5071199;28;20507;-70
2022/09/23 12:12:03;;;;;;;1999.90;999.90;;;19.80;87.90;;;;;;5072541;28;20445;-73
2022/09/23 12:14:39;;;;;;;1999.90;999.90;;;20.10;85.30;;;;;;5070948;28;20477;-73
2022/09/23 12:17:22;;;;;;;1999.90;999.90;;;20.40;86.80;;;;;;5072281;28;20552;-72
2022/09/23 12:20:17;;;;;;;1999.90;999.90;;;20.50;84.80;;;;;;5072066;28;20426;-71
2022/09/23 12:22:55;;;;;;;1999.90;999.90;;;20.80;87.40;;;;;;5072307;28;20925;-72
2022/09/23 12:25:49;;;;;;;1999.90;999.90;;;20.90;88.30;;;;;;5069954;28;20526;-72
2022/09/23 12:28:19;;;;;;;1999.90;999.90;;;20.50;86.10;;;;;;5070841;28;20903;-72
2022/09/23 12:30:47;;;;;;;1999.90;999.90;;;20.40;85.00;;;;;;5068546;28;20465;-70
2022/09/23 12:33:23;;;;;;;1999.90;999.90;;;20.40;86.00;;;;;;5071041;28;20465;-71